sensor_id;sensor_type;location;lat;lon;timestamp;P1;durP1;ratioP1;P2;durP2;ratioP2
3101;SDS011;1561;42.666;23.392;2022-11-23T00:01:13;17.23;;;11.87;;
3101;SDS011;1561;42.666;23.392;2022-11-23T00:03:41;14.30;;;11.63;;
3101;SDS011;1561;42.666;23.392;2022-11-23T00:06:09;18.80;;;13.13;;
3101;SDS011;1561;42.666;23.392;2022-11-23T00:08:36;13.40;;;11.17;;
3101;SDS011;1561;42.666;23.392;2022-11-23T00:11:04;15.20;;;11.30;;
3101;SDS011;1561;42.666;23.392;2022-11-23T00:13:32;13.87;;;11.10;;
3101;SDS011;1561;42.666;23.392;2022-11-23T00:16:07;16.33;;;10.73;;
3101;SDS011;1561;42.666;23.392;2022-11-23T00:18:37;14.53;;;11.73;;
3101;SDS011;1561;42.666;23.392;2022-11-23T00:21:07;14.93;;;11.53;;
3101;SDS011;1561;42.666;23.392;2022-11-23T00:23:34;20.10;;;11.63;;
3101;SDS011;1561;42.666;23.392;2022-11-23T00:26:03;17.07;;;12.07;;
3101;SDS011;1561;42.666;23.392;2022-11-23T00:28:31;15.40;;;12.53;;
3101;SDS011;1561;42.666;23.392;2022-11-23T00:31:02;17.53;;;13.20;;
3101;SDS011;1561;42.666;23.392;2022-11-23T00:33:30;17.43;;;13.37;;
3101;SDS011;1561;42.666;23.392;2022-11-23T00:35:58;17.97;;;13.23;;
3101;SDS011;1561;42.666;23.392;2022-11-23T00:38:26;15.37;;;12.37;;
3101;SDS011;1561;42.666;23.392;2022-11-23T00:40:58;17.67;;;12.80;;
3101;SDS011;1561;42.666;23.392;2022-11-23T00:43:26;16.87;;;13.20;;
3101;SDS011;1561;42.666;23.392;2022-11-23T00:46:05;16.17;;;12.10;;
3101;SDS011;1561;42.666;23.392;2022-11-23T00:48:34;14.80;;;11.67;;
3101;SDS011;1561;42.666;23.392;2022-11-23T00:51:02;27.53;;;12.50;;
3101;SDS011;1561;42.666;23.392;2022-11-23T00:53:31;16.90;;;13.33;;
3101;SDS011;1561;42.666;23.392;2022-11-23T00:55:58;15.70;;;12.27;;
3101;SDS011;1561;42.666;23.392;2022-11-23T00:58:25;18.93;;;13.23;;
3101;SDS011;1561;42.666;23.392;2022-11-23T01:00:59;16.97;;;12.83;;
3101;SDS011;1561;42.666;23.392;2022-11-23T01:03:29;17.90;;;13.63;;
3101;SDS011;1561;42.666;23.392;2022-11-23T01:06:00;18.73;;;13.00;;
3101;SDS011;1561;42.666;23.392;2022-11-23T01:08:29;18.20;;;14.20;;
3101;SDS011;1561;42.666;23.392;2022-11-23T01:11:00;14.57;;;12.27;;
3101;SDS011;1561;42.666;23.392;2022-11-23T01:13:27;14.40;;;11.13;;
3101;SDS011;1561;42.666;23.392;2022-11-23T01:15:58;18.80;;;12.80;;
3101;SDS011;1561;42.666;23.392;2022-11-23T01:18:25;16.27;;;13.10;;
3101;SDS011;1561;42.666;23.392;2022-11-23T01:20:55;14.20;;;11.37;;
3101;SDS011;1561;42.666;23.392;2022-11-23T01:23:22;15.13;;;11.30;;
3101;SDS011;1561;42.666;23.392;2022-11-23T01:25:49;16.93;;;11.90;;
3101;SDS011;1561;42.666;23.392;2022-11-23T01:28:15;16.13;;;12.53;;
3101;SDS011;1561;42.666;23.392;2022-11-23T01:30:42;16.67;;;12.97;;
3101;SDS011;1561;42.666;23.392;2022-11-23T01:33:09;15.63;;;12.63;;
3101;SDS011;1561;42.666;23.392;2022-11-23T01:35:38;21.60;;;13.30;;
3101;SDS011;1561;42.666;23.392;2022-11-23T01:38:07;19.20;;;13.67;;
3101;SDS011;1561;42.666;23.392;2022-11-23T01:40:39;19.07;;;13.90;;
3101;SDS011;1561;42.666;23.392;2022-11-23T01:43:09;18.13;;;13.73;;
3101;SDS011;1561;42.666;23.392;2022-11-23T01:45:42;18.43;;;13.60;;
3101;SDS011;1561;42.666;23.392;2022-11-23T01:48:12;18.97;;;12.70;;
3101;SDS011;1561;42.666;23.392;2022-11-23T01:50:43;15.67;;;12.17;;
3101;SDS011;1561;42.666;23.392;2022-11-23T01:53:15;20.03;;;14.30;;
3101;SDS011;1561;42.666;23.392;2022-11-23T01:55:44;19.80;;;14.30;;
3101;SDS011;1561;42.666;23.392;2022-11-23T01:58:15;19.63;;;14.90;;
3101;SDS011;1561;42.666;23.392;2022-11-23T02:00:46;21.03;;;15.37;;
3101;SDS011;1561;42.666;23.392;2022-11-23T02:03:13;21.47;;;15.37;;
3101;SDS011;1561;42.666;23.392;2022-11-23T02:05:41;19.13;;;14.77;;
3101;SDS011;1561;42.666;23.392;2022-11-23T02:08:12;19.53;;;15.57;;
3101;SDS011;1561;42.666;23.392;2022-11-23T02:10:44;19.70;;;14.30;;
3101;SDS011;1561;42.666;23.392;2022-11-23T02:13:13;18.70;;;15.03;;
3101;SDS011;1561;42.666;23.392;2022-11-23T02:15:41;20.77;;;15.33;;
3101;SDS011;1561;42.666;23.392;2022-11-23T02:18:09;20.20;;;15.47;;
3101;SDS011;1561;42.666;23.392;2022-11-23T02:20:39;22.57;;;16.50;;
3101;SDS011;1561;42.666;23.392;2022-11-23T02:23:09;24.10;;;16.30;;
3101;SDS011;1561;42.666;23.392;2022-11-23T02:25:51;19.63;;;15.20;;
3101;SDS011;1561;42.666;23.392;2022-11-23T02:28:26;24.57;;;17.00;;
3101;SDS011;1561;42.666;23.392;2022-11-23T02:30:56;21.87;;;16.20;;
3101;SDS011;1561;42.666;23.392;2022-11-23T02:33:23;23.27;;;17.73;;
3101;SDS011;1561;42.666;23.392;2022-11-23T02:35:52;23.20;;;16.80;;
3101;SDS011;1561;42.666;23.392;2022-11-23T02:38:23;21.07;;;16.40;;
3101;SDS011;1561;42.666;23.392;2022-11-23T02:40:54;22.53;;;16.13;;
3101;SDS011;1561;42.666;23.392;2022-11-23T02:43:23;24.33;;;17.00;;
3101;SDS011;1561;42.666;23.392;2022-11-23T02:46:06;24.23;;;17.50;;
3101;SDS011;1561;42.666;23.392;2022-11-23T02:48:38;26.70;;;18.17;;
3101;SDS011;1561;42.666;23.392;2022-11-23T02:51:11;25.70;;;17.83;;
3101;SDS011;1561;42.666;23.392;2022-11-23T02:54:05;22.57;;;17.13;;
3101;SDS011;1561;42.666;23.392;2022-11-23T02:59:27;27.67;;;17.80;;
3101;SDS011;1561;42.666;23.392;2022-11-23T03:02:02;34.47;;;21.57;;
3101;SDS011;1561;42.666;23.392;2022-11-23T03:04:33;38.53;;;25.33;;
3101;SDS011;1561;42.666;23.392;2022-11-23T03:07:14;23.50;;;16.33;;
3101;SDS011;1561;42.666;23.392;2022-11-23T03:09:48;26.80;;;17.90;;
3101;SDS011;1561;42.666;23.392;2022-11-23T03:12:32;25.10;;;16.57;;
3101;SDS011;1561;42.666;23.392;2022-11-23T03:14:59;26.07;;;18.50;;
3101;SDS011;1561;42.666;23.392;2022-11-23T03:17:28;21.07;;;15.30;;
3101;SDS011;1561;42.666;23.392;2022-11-23T03:19:55;19.60;;;14.57;;
3101;SDS011;1561;42.666;23.392;2022-11-23T03:22:23;20.33;;;13.90;;
3101;SDS011;1561;42.666;23.392;2022-11-23T03:24:52;18.60;;;13.60;;
3101;SDS011;1561;42.666;23.392;2022-11-23T03:27:22;16.83;;;12.17;;
3101;SDS011;1561;42.666;23.392;2022-11-23T03:29:51;17.43;;;13.63;;
3101;SDS011;1561;42.666;23.392;2022-11-23T03:32:21;18.03;;;13.90;;
3101;SDS011;1561;42.666;23.392;2022-11-23T03:34:49;17.90;;;13.73;;
3101;SDS011;1561;42.666;23.392;2022-11-23T03:37:15;19.57;;;14.30;;
3101;SDS011;1561;42.666;23.392;2022-11-23T03:39:43;19.97;;;15.40;;
3101;SDS011;1561;42.666;23.392;2022-11-23T03:42:12;23.77;;;17.23;;
3101;SDS011;1561;42.666;23.392;2022-11-23T03:44:40;21.70;;;16.37;;
3101;SDS011;1561;42.666;23.392;2022-11-23T03:47:08;26.37;;;18.57;;
3101;SDS011;1561;42.666;23.392;2022-11-23T03:49:36;28.57;;;16.47;;
3101;SDS011;1561;42.666;23.392;2022-11-23T03:52:04;22.17;;;16.87;;
3101;SDS011;1561;42.666;23.392;2022-11-23T03:54:31;23.13;;;16.67;;
3101;SDS011;1561;42.666;23.392;2022-11-23T03:57:00;23.63;;;17.10;;
3101;SDS011;1561;42.666;23.392;2022-11-23T03:59:27;23.80;;;17.40;;
3101;SDS011;1561;42.666;23.392;2022-11-23T04:01:55;22.37;;;15.97;;
3101;SDS011;1561;42.666;23.392;2022-11-23T04:04:23;26.70;;;17.87;;
3101;SDS011;1561;42.666;23.392;2022-11-23T04:06:51;22.87;;;16.93;;
3101;SDS011;1561;42.666;23.392;2022-11-23T04:09:19;24.83;;;17.70;;
3101;SDS011;1561;42.666;23.392;2022-11-23T04:14:35;25.10;;;17.50;;
3101;SDS011;1561;42.666;23.392;2022-11-23T04:17:03;28.50;;;18.50;;
3101;SDS011;1561;42.666;23.392;2022-11-23T04:19:33;27.80;;;19.03;;
3101;SDS011;1561;42.666;23.392;2022-11-23T04:22:04;21.97;;;17.70;;
3101;SDS011;1561;42.666;23.392;2022-11-23T04:24:32;26.60;;;18.40;;
3101;SDS011;1561;42.666;23.392;2022-11-23T04:26:59;24.80;;;18.27;;
3101;SDS011;1561;42.666;23.392;2022-11-23T04:29:25;25.90;;;19.50;;
3101;SDS011;1561;42.666;23.392;2022-11-23T04:31:52;26.03;;;19.90;;
3101;SDS011;1561;42.666;23.392;2022-11-23T04:34:19;24.63;;;18.63;;
3101;SDS011;1561;42.666;23.392;2022-11-23T04:36:50;25.77;;;19.50;;
3101;SDS011;1561;42.666;23.392;2022-11-23T04:39:17;26.37;;;19.30;;
3101;SDS011;1561;42.666;23.392;2022-11-23T04:41:44;30.97;;;20.27;;
3101;SDS011;1561;42.666;23.392;2022-11-23T04:44:11;27.87;;;21.10;;
3101;SDS011;1561;42.666;23.392;2022-11-23T04:46:38;32.10;;;23.43;;
3101;SDS011;1561;42.666;23.392;2022-11-23T04:49:07;28.80;;;22.20;;
3101;SDS011;1561;42.666;23.392;2022-11-23T04:51:36;33.53;;;21.50;;
3101;SDS011;1561;42.666;23.392;2022-11-23T04:54:08;27.93;;;19.10;;
3101;SDS011;1561;42.666;23.392;2022-11-23T04:56:35;28.63;;;21.00;;
3101;SDS011;1561;42.666;23.392;2022-11-23T04:59:02;27.07;;;20.20;;
3101;SDS011;1561;42.666;23.392;2022-11-23T05:01:29;30.30;;;22.60;;
3101;SDS011;1561;42.666;23.392;2022-11-23T05:03:57;39.43;;;24.40;;
3101;SDS011;1561;42.666;23.392;2022-11-23T05:06:24;33.67;;;24.30;;
3101;SDS011;1561;42.666;23.392;2022-11-23T05:08:50;35.93;;;23.47;;
3101;SDS011;1561;42.666;23.392;2022-11-23T05:11:19;32.10;;;23.87;;
3101;SDS011;1561;42.666;23.392;2022-11-23T05:13:45;33.90;;;24.50;;
3101;SDS011;1561;42.666;23.392;2022-11-23T05:16:12;33.50;;;22.27;;
3101;SDS011;1561;42.666;23.392;2022-11-23T05:18:41;27.80;;;20.70;;
3101;SDS011;1561;42.666;23.392;2022-11-23T05:21:08;37.60;;;22.97;;
3101;SDS011;1561;42.666;23.392;2022-11-23T05:23:34;28.13;;;20.80;;
3101;SDS011;1561;42.666;23.392;2022-11-23T05:26:01;31.50;;;23.03;;
3101;SDS011;1561;42.666;23.392;2022-11-23T05:28:29;30.53;;;21.20;;
3101;SDS011;1561;42.666;23.392;2022-11-23T05:30:57;31.47;;;22.90;;
3101;SDS011;1561;42.666;23.392;2022-11-23T05:33:27;41.47;;;27.60;;
3101;SDS011;1561;42.666;23.392;2022-11-23T05:35:54;28.53;;;20.97;;
3101;SDS011;1561;42.666;23.392;2022-11-23T05:38:21;29.70;;;21.80;;
3101;SDS011;1561;42.666;23.392;2022-11-23T05:40:49;27.00;;;22.17;;
3101;SDS011;1561;42.666;23.392;2022-11-23T05:43:16;25.63;;;21.37;;
3101;SDS011;1561;42.666;23.392;2022-11-23T05:45:45;25.90;;;20.50;;
3101;SDS011;1561;42.666;23.392;2022-11-23T05:48:12;30.23;;;20.67;;
3101;SDS011;1561;42.666;23.392;2022-11-23T05:50:40;28.17;;;21.70;;
3101;SDS011;1561;42.666;23.392;2022-11-23T05:53:07;26.00;;;19.83;;
3101;SDS011;1561;42.666;23.392;2022-11-23T05:55:39;26.47;;;19.90;;
3101;SDS011;1561;42.666;23.392;2022-11-23T05:58:06;30.17;;;22.17;;
3101;SDS011;1561;42.666;23.392;2022-11-23T06:00:33;29.60;;;20.57;;
3101;SDS011;1561;42.666;23.392;2022-11-23T06:03:06;31.77;;;20.83;;
3101;SDS011;1561;42.666;23.392;2022-11-23T06:05:33;24.30;;;19.57;;
3101;SDS011;1561;42.666;23.392;2022-11-23T06:08:04;22.80;;;17.73;;
3101;SDS011;1561;42.666;23.392;2022-11-23T06:10:32;45.63;;;28.83;;
3101;SDS011;1561;42.666;23.392;2022-11-23T06:13:03;36.00;;;25.40;;
3101;SDS011;1561;42.666;23.392;2022-11-23T06:15:31;31.60;;;22.67;;
3101;SDS011;1561;42.666;23.392;2022-11-23T06:17:58;29.27;;;21.53;;
3101;SDS011;1561;42.666;23.392;2022-11-23T06:20:28;26.00;;;19.07;;
3101;SDS011;1561;42.666;23.392;2022-11-23T06:22:56;21.30;;;17.87;;
3101;SDS011;1561;42.666;23.392;2022-11-23T06:25:30;23.00;;;17.90;;
3101;SDS011;1561;42.666;23.392;2022-11-23T06:27:58;22.93;;;18.10;;
3101;SDS011;1561;42.666;23.392;2022-11-23T06:30:26;28.13;;;19.97;;
3101;SDS011;1561;42.666;23.392;2022-11-23T06:32:55;28.43;;;20.80;;
3101;SDS011;1561;42.666;23.392;2022-11-23T06:35:23;27.50;;;20.80;;
3101;SDS011;1561;42.666;23.392;2022-11-23T06:37:51;22.13;;;18.90;;
3101;SDS011;1561;42.666;23.392;2022-11-23T06:40:19;23.03;;;18.93;;
3101;SDS011;1561;42.666;23.392;2022-11-23T06:42:46;36.27;;;24.10;;
3101;SDS011;1561;42.666;23.392;2022-11-23T06:45:13;24.13;;;19.50;;
3101;SDS011;1561;42.666;23.392;2022-11-23T06:47:40;24.33;;;18.97;;
3101;SDS011;1561;42.666;23.392;2022-11-23T06:50:08;22.00;;;17.83;;
3101;SDS011;1561;42.666;23.392;2022-11-23T06:52:36;23.60;;;19.30;;
3101;SDS011;1561;42.666;23.392;2022-11-23T06:55:07;24.93;;;18.50;;
3101;SDS011;1561;42.666;23.392;2022-11-23T06:57:34;25.67;;;18.47;;
3101;SDS011;1561;42.666;23.392;2022-11-23T07:00:01;25.13;;;19.37;;
3101;SDS011;1561;42.666;23.392;2022-11-23T07:02:31;24.33;;;17.60;;
3101;SDS011;1561;42.666;23.392;2022-11-23T07:04:59;22.23;;;19.60;;
3101;SDS011;1561;42.666;23.392;2022-11-23T07:07:33;20.00;;;17.10;;
3101;SDS011;1561;42.666;23.392;2022-11-23T07:10:07;17.63;;;15.53;;
3101;SDS011;1561;42.666;23.392;2022-11-23T07:12:34;16.47;;;14.77;;
3101;SDS011;1561;42.666;23.392;2022-11-23T07:15:07;16.53;;;14.03;;
3101;SDS011;1561;42.666;23.392;2022-11-23T07:17:37;20.00;;;16.13;;
3101;SDS011;1561;42.666;23.392;2022-11-23T07:20:06;18.83;;;15.00;;
3101;SDS011;1561;42.666;23.392;2022-11-23T07:22:41;17.00;;;14.80;;
3101;SDS011;1561;42.666;23.392;2022-11-23T07:25:13;15.60;;;13.93;;
3101;SDS011;1561;42.666;23.392;2022-11-23T07:27:45;17.60;;;15.30;;
3101;SDS011;1561;42.666;23.392;2022-11-23T07:30:15;19.03;;;14.80;;
3101;SDS011;1561;42.666;23.392;2022-11-23T07:32:43;18.73;;;15.37;;
3101;SDS011;1561;42.666;23.392;2022-11-23T07:35:14;18.07;;;15.13;;
3101;SDS011;1561;42.666;23.392;2022-11-23T07:37:48;20.73;;;16.90;;
3101;SDS011;1561;42.666;23.392;2022-11-23T07:40:24;19.80;;;16.67;;
3101;SDS011;1561;42.666;23.392;2022-11-23T07:42:58;19.70;;;17.60;;
3101;SDS011;1561;42.666;23.392;2022-11-23T07:45:27;21.53;;;18.93;;
3101;SDS011;1561;42.666;23.392;2022-11-23T07:47:58;20.70;;;16.87;;
3101;SDS011;1561;42.666;23.392;2022-11-23T07:50:26;20.97;;;17.90;;
3101;SDS011;1561;42.666;23.392;2022-11-23T07:52:54;22.43;;;18.50;;
3101;SDS011;1561;42.666;23.392;2022-11-23T07:55:23;19.13;;;16.60;;
3101;SDS011;1561;42.666;23.392;2022-11-23T07:57:56;19.43;;;17.13;;
3101;SDS011;1561;42.666;23.392;2022-11-23T08:00:27;21.13;;;17.33;;
3101;SDS011;1561;42.666;23.392;2022-11-23T08:03:09;23.00;;;19.00;;
3101;SDS011;1561;42.666;23.392;2022-11-23T08:05:40;19.87;;;17.77;;
3101;SDS011;1561;42.666;23.392;2022-11-23T08:08:07;20.20;;;18.10;;
3101;SDS011;1561;42.666;23.392;2022-11-23T08:10:37;21.53;;;19.23;;
3101;SDS011;1561;42.666;23.392;2022-11-23T08:13:06;22.70;;;18.23;;
3101;SDS011;1561;42.666;23.392;2022-11-23T08:15:34;19.73;;;17.83;;
3101;SDS011;1561;42.666;23.392;2022-11-23T08:18:02;18.97;;;17.03;;
3101;SDS011;1561;42.666;23.392;2022-11-23T08:20:30;19.60;;;17.57;;
3101;SDS011;1561;42.666;23.392;2022-11-23T08:22:58;19.67;;;17.67;;
3101;SDS011;1561;42.666;23.392;2022-11-23T08:25:33;19.98;;;17.98;;
3101;SDS011;1561;42.666;23.392;2022-11-23T08:28:07;22.63;;;20.33;;
3101;SDS011;1561;42.666;23.392;2022-11-23T08:30:34;23.57;;;21.00;;
3101;SDS011;1561;42.666;23.392;2022-11-23T08:33:02;23.43;;;21.03;;
3101;SDS011;1561;42.666;23.392;2022-11-23T08:35:31;22.45;;;19.45;;
3101;SDS011;1561;42.666;23.392;2022-11-23T08:38:00;21.67;;;19.52;;
3101;SDS011;1561;42.666;23.392;2022-11-23T08:40:27;22.35;;;20.08;;
3101;SDS011;1561;42.666;23.392;2022-11-23T08:42:57;24.85;;;19.98;;
3101;SDS011;1561;42.666;23.392;2022-11-23T08:45:31;23.73;;;19.38;;
3101;SDS011;1561;42.666;23.392;2022-11-23T08:48:02;22.83;;;20.45;;
3101;SDS011;1561;42.666;23.392;2022-11-23T08:50:31;24.63;;;22.13;;
3101;SDS011;1561;42.666;23.392;2022-11-23T08:53:04;24.23;;;21.50;;
3101;SDS011;1561;42.666;23.392;2022-11-23T08:55:32;22.57;;;20.33;;
3101;SDS011;1561;42.666;23.392;2022-11-23T08:58:00;22.60;;;20.15;;
3101;SDS011;1561;42.666;23.392;2022-11-23T09:00:30;22.25;;;19.25;;
3101;SDS011;1561;42.666;23.392;2022-11-23T09:03:03;20.57;;;18.47;;
3101;SDS011;1561;42.666;23.392;2022-11-23T09:05:32;20.80;;;18.37;;
3101;SDS011;1561;42.666;23.392;2022-11-23T09:08:02;20.53;;;18.30;;
3101;SDS011;1561;42.666;23.392;2022-11-23T09:10:32;19.13;;;16.77;;
3101;SDS011;1561;42.666;23.392;2022-11-23T09:12:59;18.40;;;16.13;;
3101;SDS011;1561;42.666;23.392;2022-11-23T09:15:26;18.10;;;15.70;;
3101;SDS011;1561;42.666;23.392;2022-11-23T09:17:56;17.37;;;15.47;;
3101;SDS011;1561;42.666;23.392;2022-11-23T09:20:24;18.45;;;16.75;;
3101;SDS011;1561;42.666;23.392;2022-11-23T09:22:51;18.65;;;16.83;;
3101;SDS011;1561;42.666;23.392;2022-11-23T09:25:19;17.08;;;15.48;;
3101;SDS011;1561;42.666;23.392;2022-11-23T09:27:47;17.55;;;15.65;;
3101;SDS011;1561;42.666;23.392;2022-11-23T09:30:15;17.85;;;16.10;;
3101;SDS011;1561;42.666;23.392;2022-11-23T09:32:42;18.00;;;16.25;;
3101;SDS011;1561;42.666;23.392;2022-11-23T09:35:14;17.60;;;15.90;;
3101;SDS011;1561;42.666;23.392;2022-11-23T09:37:41;15.35;;;13.95;;
3101;SDS011;1561;42.666;23.392;2022-11-23T09:40:08;15.48;;;14.10;;
3101;SDS011;1561;42.666;23.392;2022-11-23T09:45:33;13.93;;;12.43;;
3101;SDS011;1561;42.666;23.392;2022-11-23T09:48:19;13.00;;;11.80;;
3101;SDS011;1561;42.666;23.392;2022-11-23T09:50:57;15.05;;;13.55;;
3101;SDS011;1561;42.666;23.392;2022-11-23T09:53:28;15.50;;;14.13;;
3101;SDS011;1561;42.666;23.392;2022-11-23T09:55:58;17.30;;;15.48;;
3101;SDS011;1561;42.666;23.392;2022-11-23T09:58:26;11.18;;;10.00;;
3101;SDS011;1561;42.666;23.392;2022-11-23T10:00:59;12.30;;;11.20;;
3101;SDS011;1561;42.666;23.392;2022-11-23T10:03:28;10.27;;;9.35;;
3101;SDS011;1561;42.666;23.392;2022-11-23T10:06:03;10.40;;;9.48;;
3101;SDS011;1561;42.666;23.392;2022-11-23T10:08:40;13.55;;;10.80;;
3101;SDS011;1561;42.666;23.392;2022-11-23T10:11:23;10.48;;;9.52;;
3101;SDS011;1561;42.666;23.392;2022-11-23T10:14:32;9.63;;;8.82;;
3101;SDS011;1561;42.666;23.392;2022-11-23T10:17:08;8.50;;;7.63;;
3101;SDS011;1561;42.666;23.392;2022-11-23T10:19:53;8.85;;;5.85;;
3101;SDS011;1561;42.666;23.392;2022-11-23T10:22:33;7.20;;;6.50;;
3101;SDS011;1561;42.666;23.392;2022-11-23T10:25:11;5.47;;;5.07;;
3101;SDS011;1561;42.666;23.392;2022-11-23T10:27:44;6.10;;;5.50;;
3101;SDS011;1561;42.666;23.392;2022-11-23T10:30:15;7.40;;;6.15;;
3101;SDS011;1561;42.666;23.392;2022-11-23T10:32:44;6.43;;;5.82;;
3101;SDS011;1561;42.666;23.392;2022-11-23T10:35:17;5.88;;;5.38;;
3101;SDS011;1561;42.666;23.392;2022-11-23T10:37:53;6.28;;;5.65;;
3101;SDS011;1561;42.666;23.392;2022-11-23T10:40:33;5.40;;;5.00;;
3101;SDS011;1561;42.666;23.392;2022-11-23T10:43:07;11.52;;;6.32;;
3101;SDS011;1561;42.666;23.392;2022-11-23T10:45:42;6.57;;;5.23;;
3101;SDS011;1561;42.666;23.392;2022-11-23T10:48:11;5.57;;;4.60;;
3101;SDS011;1561;42.666;23.392;2022-11-23T10:50:46;5.80;;;5.30;;
3101;SDS011;1561;42.666;23.392;2022-11-23T10:53:19;5.67;;;4.50;;
3101;SDS011;1561;42.666;23.392;2022-11-23T10:55:53;5.83;;;5.27;;
3101;SDS011;1561;42.666;23.392;2022-11-23T10:58:24;7.13;;;4.90;;
3101;SDS011;1561;42.666;23.392;2022-11-23T11:00:57;7.03;;;4.80;;
3101;SDS011;1561;42.666;23.392;2022-11-23T11:03:28;5.53;;;5.03;;
3101;SDS011;1561;42.666;23.392;2022-11-23T11:05:56;7.80;;;4.90;;
3101;SDS011;1561;42.666;23.392;2022-11-23T11:08:26;15.10;;;8.20;;
3101;SDS011;1561;42.666;23.392;2022-11-23T11:10:58;8.67;;;6.50;;
3101;SDS011;1561;42.666;23.392;2022-11-23T11:13:28;10.33;;;8.60;;
3101;SDS011;1561;42.666;23.392;2022-11-23T11:15:56;9.63;;;7.30;;
3101;SDS011;1561;42.666;23.392;2022-11-23T11:18:26;6.23;;;5.63;;
3101;SDS011;1561;42.666;23.392;2022-11-23T11:21:05;7.33;;;5.20;;
3101;SDS011;1561;42.666;23.392;2022-11-23T11:23:37;7.67;;;6.87;;
3101;SDS011;1561;42.666;23.392;2022-11-23T11:26:09;10.53;;;6.63;;
3101;SDS011;1561;42.666;23.392;2022-11-23T11:28:46;10.00;;;7.70;;
3101;SDS011;1561;42.666;23.392;2022-11-23T11:31:24;3.60;;;3.30;;
3101;SDS011;1561;42.666;23.392;2022-11-23T11:34:03;3.80;;;2.93;;
3101;SDS011;1561;42.666;23.392;2022-11-23T11:36:40;4.50;;;3.50;;
3101;SDS011;1561;42.666;23.392;2022-11-23T11:39:23;3.10;;;2.80;;
3101;SDS011;1561;42.666;23.392;2022-11-23T11:41:57;3.70;;;3.40;;
3101;SDS011;1561;42.666;23.392;2022-11-23T11:44:28;4.50;;;4.20;;
3101;SDS011;1561;42.666;23.392;2022-11-23T11:47:02;6.53;;;4.17;;
3101;SDS011;1561;42.666;23.392;2022-11-23T11:49:36;14.07;;;8.20;;
3101;SDS011;1561;42.666;23.392;2022-11-23T11:52:10;6.33;;;4.40;;
3101;SDS011;1561;42.666;23.392;2022-11-23T11:54:45;6.33;;;4.57;;
3101;SDS011;1561;42.666;23.392;2022-11-23T11:57:17;5.97;;;4.77;;
3101;SDS011;1561;42.666;23.392;2022-11-23T11:59:48;7.33;;;4.80;;
3101;SDS011;1561;42.666;23.392;2022-11-23T12:02:22;4.90;;;4.50;;
3101;SDS011;1561;42.666;23.392;2022-11-23T12:04:55;6.33;;;4.87;;
3101;SDS011;1561;42.666;23.392;2022-11-23T12:07:30;7.30;;;4.23;;
3101;SDS011;1561;42.666;23.392;2022-11-23T12:10:05;4.23;;;3.40;;
3101;SDS011;1561;42.666;23.392;2022-11-23T12:12:38;11.13;;;3.43;;
3101;SDS011;1561;42.666;23.392;2022-11-23T12:15:05;8.43;;;3.93;;
3101;SDS011;1561;42.666;23.392;2022-11-23T12:17:46;4.50;;;2.50;;
3101;SDS011;1561;42.666;23.392;2022-11-23T12:20:23;2.70;;;2.50;;
3101;SDS011;1561;42.666;23.392;2022-11-23T12:23:03;2.00;;;1.90;;
3101;SDS011;1561;42.666;23.392;2022-11-23T12:25:42;3.38;;;2.30;;
3101;SDS011;1561;42.666;23.392;2022-11-23T12:28:27;3.03;;;2.50;;
3101;SDS011;1561;42.666;23.392;2022-11-23T12:31:08;3.73;;;2.90;;
3101;SDS011;1561;42.666;23.392;2022-11-23T12:33:49;2.00;;;1.90;;
3101;SDS011;1561;42.666;23.392;2022-11-23T12:36:33;3.27;;;2.77;;
3101;SDS011;1561;42.666;23.392;2022-11-23T12:39:13;4.27;;;2.40;;
3101;SDS011;1561;42.666;23.392;2022-11-23T12:41:57;4.33;;;2.93;;
3101;SDS011;1561;42.666;23.392;2022-11-23T12:44:48;2.83;;;2.60;;
3101;SDS011;1561;42.666;23.392;2022-11-23T12:47:32;6.87;;;4.40;;
3101;SDS011;1561;42.666;23.392;2022-11-23T12:50:13;2.40;;;2.00;;
3101;SDS011;1561;42.666;23.392;2022-11-23T12:52:56;2.70;;;1.83;;
3101;SDS011;1561;42.666;23.392;2022-11-23T12:55:30;2.07;;;1.93;;
3101;SDS011;1561;42.666;23.392;2022-11-23T12:58:11;24.13;;;12.73;;
3101;SDS011;1561;42.666;23.392;2022-11-23T13:00:47;24.07;;;11.57;;
3101;SDS011;1561;42.666;23.392;2022-11-23T13:03:32;3.17;;;2.10;;
3101;SDS011;1561;42.666;23.392;2022-11-23T13:09:23;2.27;;;2.00;;
3101;SDS011;1561;42.666;23.392;2022-11-23T13:12:12;1.90;;;1.80;;
3101;SDS011;1561;42.666;23.392;2022-11-23T13:14:56;1.87;;;1.50;;
3101;SDS011;1561;42.666;23.392;2022-11-23T13:17:33;3.30;;;1.60;;
3101;SDS011;1561;42.666;23.392;2022-11-23T13:20:19;2.20;;;2.00;;
3101;SDS011;1561;42.666;23.392;2022-11-23T13:22:58;13.77;;;9.90;;
3101;SDS011;1561;42.666;23.392;2022-11-23T13:25:25;1.80;;;1.70;;
3101;SDS011;1561;42.666;23.392;2022-11-23T13:27:54;20.30;;;13.73;;
3101;SDS011;1561;42.666;23.392;2022-11-23T13:30:31;43.07;;;22.60;;
3101;SDS011;1561;42.666;23.392;2022-11-23T13:33:01;1.30;;;1.30;;
3101;SDS011;1561;42.666;23.392;2022-11-23T13:35:51;2.73;;;2.00;;
3101;SDS011;1561;42.666;23.392;2022-11-23T13:38:34;2.50;;;2.10;;
3101;SDS011;1561;42.666;23.392;2022-11-23T13:41:03;5.10;;;4.40;;
3101;SDS011;1561;42.666;23.392;2022-11-23T13:43:46;1.80;;;1.70;;
3101;SDS011;1561;42.666;23.392;2022-11-23T13:46:21;2.00;;;1.90;;
3101;SDS011;1561;42.666;23.392;2022-11-23T13:48:51;2.07;;;1.97;;
3101;SDS011;1561;42.666;23.392;2022-11-23T13:51:24;3.30;;;2.13;;
3101;SDS011;1561;42.666;23.392;2022-11-23T13:53:59;2.00;;;1.80;;
3101;SDS011;1561;42.666;23.392;2022-11-23T13:56:29;2.07;;;1.97;;
3101;SDS011;1561;42.666;23.392;2022-11-23T14:02:22;8.67;;;2.10;;
3101;SDS011;1561;42.666;23.392;2022-11-23T14:08:03;2.73;;;2.30;;
3101;SDS011;1561;42.666;23.392;2022-11-23T14:10:36;3.27;;;2.80;;
3101;SDS011;1561;42.666;23.392;2022-11-23T14:13:07;3.83;;;2.73;;
3101;SDS011;1561;42.666;23.392;2022-11-23T14:15:41;1.83;;;1.73;;
3101;SDS011;1561;42.666;23.392;2022-11-23T14:21:13;3.33;;;2.33;;
3101;SDS011;1561;42.666;23.392;2022-11-23T14:27:07;5.97;;;2.50;;
3101;SDS011;1561;42.666;23.392;2022-11-23T14:29:58;2.03;;;1.93;;
3101;SDS011;1561;42.666;23.392;2022-11-23T14:32:39;4.33;;;2.77;;
3101;SDS011;1561;42.666;23.392;2022-11-23T14:35:25;3.60;;;2.67;;
3101;SDS011;1561;42.666;23.392;2022-11-23T14:41:01;2.60;;;2.40;;
3101;SDS011;1561;42.666;23.392;2022-11-23T14:43:33;5.33;;;2.20;;
3101;SDS011;1561;42.666;23.392;2022-11-23T14:46:01;2.90;;;2.37;;
3101;SDS011;1561;42.666;23.392;2022-11-23T14:48:31;2.37;;;2.17;;
3101;SDS011;1561;42.666;23.392;2022-11-23T14:51:03;4.17;;;3.30;;
3101;SDS011;1561;42.666;23.392;2022-11-23T14:53:33;4.37;;;2.40;;
3101;SDS011;1561;42.666;23.392;2022-11-23T14:56:17;8.57;;;2.50;;
3101;SDS011;1561;42.666;23.392;2022-11-23T14:58:57;2.90;;;2.60;;
3101;SDS011;1561;42.666;23.392;2022-11-23T15:01:29;4.13;;;2.40;;
3101;SDS011;1561;42.666;23.392;2022-11-23T15:04:02;8.70;;;6.10;;
3101;SDS011;1561;42.666;23.392;2022-11-23T15:06:41;14.20;;;7.33;;
3101;SDS011;1561;42.666;23.392;2022-11-23T15:09:15;8.80;;;5.67;;
3101;SDS011;1561;42.666;23.392;2022-11-23T15:12:06;13.10;;;5.93;;
3101;SDS011;1561;42.666;23.392;2022-11-23T15:14:46;7.47;;;5.27;;
3101;SDS011;1561;42.666;23.392;2022-11-23T15:17:23;10.73;;;4.33;;
3101;SDS011;1561;42.666;23.392;2022-11-23T15:19:55;6.30;;;4.10;;
3101;SDS011;1561;42.666;23.392;2022-11-23T15:22:44;10.37;;;5.00;;
3101;SDS011;1561;42.666;23.392;2022-11-23T15:25:15;14.47;;;6.20;;
3101;SDS011;1561;42.666;23.392;2022-11-23T15:27:46;18.07;;;11.40;;
3101;SDS011;1561;42.666;23.392;2022-11-23T15:30:20;22.63;;;15.97;;
3101;SDS011;1561;42.666;23.392;2022-11-23T15:32:54;23.83;;;14.87;;
3101;SDS011;1561;42.666;23.392;2022-11-23T15:35:30;31.50;;;15.83;;
3101;SDS011;1561;42.666;23.392;2022-11-23T15:38:01;27.60;;;18.77;;